sensor_id;sensor_type;location;lat;lon;timestamp;P1;durP1;ratioP1;P2;durP2;ratioP2
46230;SDS011;31949;51.404;-0.038;2023-02-13T00:00:34;27.58;;;17.27;;
46230;SDS011;31949;51.404;-0.038;2023-02-13T00:03:02;29.50;;;18.77;;
46230;SDS011;31949;51.404;-0.038;2023-02-13T00:05:30;35.65;;;20.27;;
46230;SDS011;31949;51.404;-0.038;2023-02-13T00:07:57;29.83;;;19.13;;
46230;SDS011;31949;51.404;-0.038;2023-02-13T00:10:24;31.20;;;20.42;;
46230;SDS011;31949;51.404;-0.038;2023-02-13T00:12:52;29.95;;;19.08;;
46230;SDS011;31949;51.404;-0.038;2023-02-13T00:15:19;40.45;;;24.23;;
46230;SDS011;31949;51.404;-0.038;2023-02-13T00:17:47;36.97;;;22.60;;
46230;SDS011;31949;51.404;-0.038;2023-02-13T00:20:14;35.53;;;21.40;;
46230;SDS011;31949;51.404;-0.038;2023-02-13T00:22:41;30.10;;;19.02;;
46230;SDS011;31949;51.404;-0.038;2023-02-13T00:25:08;34.10;;;20.50;;
46230;SDS011;31949;51.404;-0.038;2023-02-13T00:27:36;33.10;;;21.05;;
46230;SDS011;31949;51.404;-0.038;2023-02-13T00:30:03;32.35;;;20.92;;
46230;SDS011;31949;51.404;-0.038;2023-02-13T00:32:32;31.10;;;19.20;;
46230;SDS011;31949;51.404;-0.038;2023-02-13T00:34:59;29.10;;;19.38;;
46230;SDS011;31949;51.404;-0.038;2023-02-13T00:37:26;30.70;;;19.02;;
46230;SDS011;31949;51.404;-0.038;2023-02-13T00:39:53;32.38;;;18.95;;
46230;SDS011;31949;51.404;-0.038;2023-02-13T00:42:21;27.10;;;17.95;;
46230;SDS011;31949;51.404;-0.038;2023-02-13T00:44:52;32.50;;;21.02;;
46230;SDS011;31949;51.404;-0.038;2023-02-13T00:47:21;32.47;;;20.60;;
46230;SDS011;31949;51.404;-0.038;2023-02-13T00:49:49;30.33;;;19.98;;
46230;SDS011;31949;51.404;-0.038;2023-02-13T00:52:16;28.05;;;18.35;;
46230;SDS011;31949;51.404;-0.038;2023-02-13T00:54:43;26.70;;;17.75;;
46230;SDS011;31949;51.404;-0.038;2023-02-13T00:57:12;27.60;;;17.45;;
46230;SDS011;31949;51.404;-0.038;2023-02-13T00:59:41;28.33;;;18.73;;
46230;SDS011;31949;51.404;-0.038;2023-02-13T01:02:08;24.13;;;15.93;;
46230;SDS011;31949;51.404;-0.038;2023-02-13T01:04:35;26.20;;;16.30;;
46230;SDS011;31949;51.404;-0.038;2023-02-13T01:07:03;23.83;;;15.75;;
46230;SDS011;31949;51.404;-0.038;2023-02-13T01:09:30;28.17;;;17.75;;
46230;SDS011;31949;51.404;-0.038;2023-02-13T01:11:57;26.05;;;16.42;;
46230;SDS011;31949;51.404;-0.038;2023-02-13T01:14:24;22.67;;;15.27;;
46230;SDS011;31949;51.404;-0.038;2023-02-13T01:16:51;25.13;;;14.95;;
46230;SDS011;31949;51.404;-0.038;2023-02-13T01:19:19;22.20;;;14.38;;
46230;SDS011;31949;51.404;-0.038;2023-02-13T01:21:46;22.83;;;15.65;;
46230;SDS011;31949;51.404;-0.038;2023-02-13T01:24:13;25.45;;;15.82;;
46230;SDS011;31949;51.404;-0.038;2023-02-13T01:26:41;28.38;;;17.58;;
46230;SDS011;31949;51.404;-0.038;2023-02-13T01:29:10;25.27;;;15.02;;
46230;SDS011;31949;51.404;-0.038;2023-02-13T01:31:38;23.52;;;14.85;;
46230;SDS011;31949;51.404;-0.038;2023-02-13T01:34:05;21.63;;;14.25;;
46230;SDS011;31949;51.404;-0.038;2023-02-13T01:36:33;25.70;;;17.30;;
46230;SDS011;31949;51.404;-0.038;2023-02-13T01:39:00;26.40;;;15.98;;
46230;SDS011;31949;51.404;-0.038;2023-02-13T01:41:29;25.55;;;15.27;;
46230;SDS011;31949;51.404;-0.038;2023-02-13T01:43:57;21.98;;;14.30;;
46230;SDS011;31949;51.404;-0.038;2023-02-13T01:46:36;20.95;;;14.80;;
46230;SDS011;31949;51.404;-0.038;2023-02-13T01:49:19;22.85;;;15.48;;
46230;SDS011;31949;51.404;-0.038;2023-02-13T01:51:50;24.15;;;15.10;;
46230;SDS011;31949;51.404;-0.038;2023-02-13T01:54:24;22.98;;;15.50;;
46230;SDS011;31949;51.404;-0.038;2023-02-13T01:57:00;23.58;;;14.82;;
46230;SDS011;31949;51.404;-0.038;2023-02-13T01:59:35;22.55;;;14.88;;
46230;SDS011;31949;51.404;-0.038;2023-02-13T02:02:08;22.80;;;14.80;;
46230;SDS011;31949;51.404;-0.038;2023-02-13T02:04:36;21.63;;;15.15;;
46230;SDS011;31949;51.404;-0.038;2023-02-13T02:07:30;21.63;;;14.27;;
46230;SDS011;31949;51.404;-0.038;2023-02-13T02:10:08;23.52;;;14.63;;
46230;SDS011;31949;51.404;-0.038;2023-02-13T02:12:46;22.27;;;14.48;;
46230;SDS011;31949;51.404;-0.038;2023-02-13T02:15:29;21.05;;;14.10;;
46230;SDS011;31949;51.404;-0.038;2023-02-13T02:17:57;22.55;;;14.60;;
46230;SDS011;31949;51.404;-0.038;2023-02-13T02:23:44;23.75;;;15.38;;
46230;SDS011;31949;51.404;-0.038;2023-02-13T02:43:24;22.67;;;14.15;;
46230;SDS011;31949;51.404;-0.038;2023-02-13T02:49:29;20.60;;;13.27;;
46230;SDS011;31949;51.404;-0.038;2023-02-13T02:52:23;21.33;;;13.63;;
46230;SDS011;31949;51.404;-0.038;2023-02-13T02:55:09;21.05;;;14.07;;
46230;SDS011;31949;51.404;-0.038;2023-02-13T02:58:02;23.00;;;13.88;;
46230;SDS011;31949;51.404;-0.038;2023-02-13T03:00:56;18.95;;;12.65;;
46230;SDS011;31949;51.404;-0.038;2023-02-13T03:03:45;18.67;;;11.07;;
46230;SDS011;31949;51.404;-0.038;2023-02-13T03:09:08;18.73;;;12.18;;
46230;SDS011;31949;51.404;-0.038;2023-02-13T03:11:58;21.48;;;12.68;;
46230;SDS011;31949;51.404;-0.038;2023-02-13T03:14:45;22.70;;;13.00;;
46230;SDS011;31949;51.404;-0.038;2023-02-13T03:17:14;23.42;;;12.65;;
46230;SDS011;31949;51.404;-0.038;2023-02-13T03:20:06;18.45;;;10.98;;
46230;SDS011;31949;51.404;-0.038;2023-02-13T03:23:12;24.20;;;14.25;;
46230;SDS011;31949;51.404;-0.038;2023-02-13T03:28:46;22.67;;;13.40;;
46230;SDS011;31949;51.404;-0.038;2023-02-13T03:31:52;21.80;;;13.43;;
46230;SDS011;31949;51.404;-0.038;2023-02-13T03:34:29;20.92;;;12.82;;
46230;SDS011;31949;51.404;-0.038;2023-02-13T03:37:29;22.45;;;13.35;;
46230;SDS011;31949;51.404;-0.038;2023-02-13T03:43:07;20.33;;;12.52;;
46230;SDS011;31949;51.404;-0.038;2023-02-13T03:45:40;25.60;;;15.05;;
46230;SDS011;31949;51.404;-0.038;2023-02-13T03:48:26;24.33;;;14.35;;
46230;SDS011;31949;51.404;-0.038;2023-02-13T03:54:01;24.15;;;13.70;;
46230;SDS011;31949;51.404;-0.038;2023-02-13T03:56:38;23.38;;;14.63;;
46230;SDS011;31949;51.404;-0.038;2023-02-13T03:59:28;19.00;;;11.43;;
46230;SDS011;31949;51.404;-0.038;2023-02-13T04:07:06;20.38;;;12.90;;
46230;SDS011;31949;51.404;-0.038;2023-02-13T04:10:00;24.83;;;14.73;;
46230;SDS011;31949;51.404;-0.038;2023-02-13T04:15:28;24.30;;;13.38;;
46230;SDS011;31949;51.404;-0.038;2023-02-13T04:18:13;27.48;;;14.93;;
46230;SDS011;31949;51.404;-0.038;2023-02-13T04:20:47;25.65;;;15.02;;
46230;SDS011;31949;51.404;-0.038;2023-02-13T04:23:15;28.63;;;16.48;;
46230;SDS011;31949;51.404;-0.038;2023-02-13T04:25:43;26.02;;;15.60;;
46230;SDS011;31949;51.404;-0.038;2023-02-13T04:28:14;20.90;;;12.98;;
46230;SDS011;31949;51.404;-0.038;2023-02-13T04:30:41;25.48;;;15.20;;
46230;SDS011;31949;51.404;-0.038;2023-02-13T04:33:08;26.05;;;15.23;;
46230;SDS011;31949;51.404;-0.038;2023-02-13T04:35:36;24.98;;;15.18;;
46230;SDS011;31949;51.404;-0.038;2023-02-13T04:38:03;25.33;;;15.15;;
46230;SDS011;31949;51.404;-0.038;2023-02-13T04:40:30;24.48;;;15.68;;
46230;SDS011;31949;51.404;-0.038;2023-02-13T04:42:57;20.10;;;12.18;;
46230;SDS011;31949;51.404;-0.038;2023-02-13T04:45:25;23.25;;;13.73;;
46230;SDS011;31949;51.404;-0.038;2023-02-13T04:47:52;27.52;;;15.90;;
46230;SDS011;31949;51.404;-0.038;2023-02-13T04:50:22;25.05;;;15.95;;
46230;SDS011;31949;51.404;-0.038;2023-02-13T04:52:53;28.77;;;15.95;;
46230;SDS011;31949;51.404;-0.038;2023-02-13T04:55:22;26.52;;;15.98;;
46230;SDS011;31949;51.404;-0.038;2023-02-13T04:57:51;24.35;;;15.05;;
46230;SDS011;31949;51.404;-0.038;2023-02-13T05:00:20;24.83;;;13.30;;
46230;SDS011;31949;51.404;-0.038;2023-02-13T05:02:49;25.50;;;13.75;;
46230;SDS011;31949;51.404;-0.038;2023-02-13T05:05:16;23.15;;;12.95;;
46230;SDS011;31949;51.404;-0.038;2023-02-13T05:07:43;25.45;;;14.07;;
46230;SDS011;31949;51.404;-0.038;2023-02-13T05:10:11;24.00;;;13.90;;
46230;SDS011;31949;51.404;-0.038;2023-02-13T05:12:38;20.15;;;11.40;;
46230;SDS011;31949;51.404;-0.038;2023-02-13T05:15:06;24.45;;;13.88;;
46230;SDS011;31949;51.404;-0.038;2023-02-13T05:17:33;20.38;;;12.98;;
46230;SDS011;31949;51.404;-0.038;2023-02-13T05:20:01;25.75;;;13.60;;
46230;SDS011;31949;51.404;-0.038;2023-02-13T05:22:28;22.80;;;13.90;;
46230;SDS011;31949;51.404;-0.038;2023-02-13T05:25:14;25.23;;;13.63;;
46230;SDS011;31949;51.404;-0.038;2023-02-13T05:27:41;24.25;;;14.20;;
46230;SDS011;31949;51.404;-0.038;2023-02-13T05:30:08;26.17;;;14.63;;
46230;SDS011;31949;51.404;-0.038;2023-02-13T05:32:36;21.95;;;13.63;;
46230;SDS011;31949;51.404;-0.038;2023-02-13T05:35:04;29.40;;;16.83;;
46230;SDS011;31949;51.404;-0.038;2023-02-13T05:37:31;29.67;;;15.45;;
46230;SDS011;31949;51.404;-0.038;2023-02-13T05:39:58;20.25;;;12.32;;
46230;SDS011;31949;51.404;-0.038;2023-02-13T05:42:26;20.75;;;12.50;;
46230;SDS011;31949;51.404;-0.038;2023-02-13T05:44:53;24.10;;;14.30;;
46230;SDS011;31949;51.404;-0.038;2023-02-13T05:47:20;24.15;;;14.88;;
46230;SDS011;31949;51.404;-0.038;2023-02-13T05:49:47;22.63;;;15.15;;
46230;SDS011;31949;51.404;-0.038;2023-02-13T05:52:15;22.85;;;14.32;;
46230;SDS011;31949;51.404;-0.038;2023-02-13T05:54:42;25.00;;;13.85;;
46230;SDS011;31949;51.404;-0.038;2023-02-13T05:57:09;28.05;;;15.93;;
46230;SDS011;31949;51.404;-0.038;2023-02-13T05:59:36;27.92;;;15.75;;
46230;SDS011;31949;51.404;-0.038;2023-02-13T06:02:03;26.33;;;14.02;;
46230;SDS011;31949;51.404;-0.038;2023-02-13T06:04:31;32.42;;;16.20;;
46230;SDS011;31949;51.404;-0.038;2023-02-13T06:06:59;28.02;;;16.13;;
46230;SDS011;31949;51.404;-0.038;2023-02-13T06:09:26;30.05;;;16.70;;
46230;SDS011;31949;51.404;-0.038;2023-02-13T06:11:53;31.33;;;17.40;;
46230;SDS011;31949;51.404;-0.038;2023-02-13T06:14:20;25.58;;;13.85;;
46230;SDS011;31949;51.404;-0.038;2023-02-13T06:16:47;25.50;;;15.30;;
46230;SDS011;31949;51.404;-0.038;2023-02-13T06:19:14;26.27;;;13.95;;
46230;SDS011;31949;51.404;-0.038;2023-02-13T06:21:42;29.08;;;16.13;;
46230;SDS011;31949;51.404;-0.038;2023-02-13T06:24:09;27.60;;;14.70;;
46230;SDS011;31949;51.404;-0.038;2023-02-13T06:26:36;26.08;;;15.55;;
46230;SDS011;31949;51.404;-0.038;2023-02-13T06:29:03;28.08;;;16.95;;
46230;SDS011;31949;51.404;-0.038;2023-02-13T06:31:32;26.25;;;15.70;;
46230;SDS011;31949;51.404;-0.038;2023-02-13T06:33:59;30.17;;;16.88;;
46230;SDS011;31949;51.404;-0.038;2023-02-13T06:36:26;29.45;;;18.10;;
46230;SDS011;31949;51.404;-0.038;2023-02-13T06:38:53;30.80;;;16.77;;
46230;SDS011;31949;51.404;-0.038;2023-02-13T06:41:21;33.25;;;16.75;;
46230;SDS011;31949;51.404;-0.038;2023-02-13T06:43:48;29.85;;;15.68;;
46230;SDS011;31949;51.404;-0.038;2023-02-13T06:46:16;31.02;;;16.67;;
46230;SDS011;31949;51.404;-0.038;2023-02-13T06:48:43;31.25;;;17.42;;
46230;SDS011;31949;51.404;-0.038;2023-02-13T06:51:10;34.92;;;18.33;;
46230;SDS011;31949;51.404;-0.038;2023-02-13T06:53:37;25.95;;;13.98;;
46230;SDS011;31949;51.404;-0.038;2023-02-13T06:56:05;29.77;;;17.20;;
46230;SDS011;31949;51.404;-0.038;2023-02-13T06:58:32;26.02;;;14.95;;
46230;SDS011;31949;51.404;-0.038;2023-02-13T07:01:00;25.38;;;13.45;;
46230;SDS011;31949;51.404;-0.038;2023-02-13T07:03:27;26.67;;;14.98;;
46230;SDS011;31949;51.404;-0.038;2023-02-13T07:05:54;28.70;;;15.35;;
46230;SDS011;31949;51.404;-0.038;2023-02-13T07:08:22;30.05;;;16.15;;
46230;SDS011;31949;51.404;-0.038;2023-02-13T07:10:49;32.30;;;17.42;;
46230;SDS011;31949;51.404;-0.038;2023-02-13T07:13:16;31.67;;;16.95;;
46230;SDS011;31949;51.404;-0.038;2023-02-13T07:15:43;33.03;;;19.20;;
46230;SDS011;31949;51.404;-0.038;2023-02-13T07:18:13;30.20;;;16.25;;
46230;SDS011;31949;51.404;-0.038;2023-02-13T07:20:40;35.08;;;18.50;;
46230;SDS011;31949;51.404;-0.038;2023-02-13T07:23:08;31.92;;;16.30;;
46230;SDS011;31949;51.404;-0.038;2023-02-13T07:25:36;25.90;;;14.10;;
46230;SDS011;31949;51.404;-0.038;2023-02-13T07:28:04;26.27;;;14.13;;
46230;SDS011;31949;51.404;-0.038;2023-02-13T07:30:32;26.00;;;14.05;;
46230;SDS011;31949;51.404;-0.038;2023-02-13T07:33:01;26.58;;;15.80;;
46230;SDS011;31949;51.404;-0.038;2023-02-13T07:35:29;32.75;;;16.92;;
46230;SDS011;31949;51.404;-0.038;2023-02-13T07:37:56;34.67;;;17.75;;
46230;SDS011;31949;51.404;-0.038;2023-02-13T07:40:26;29.42;;;17.20;;
46230;SDS011;31949;51.404;-0.038;2023-02-13T07:42:53;26.88;;;15.18;;
46230;SDS011;31949;51.404;-0.038;2023-02-13T07:45:21;29.58;;;15.70;;
46230;SDS011;31949;51.404;-0.038;2023-02-13T07:47:48;30.63;;;16.17;;
46230;SDS011;31949;51.404;-0.038;2023-02-13T07:50:15;30.05;;;17.13;;
46230;SDS011;31949;51.404;-0.038;2023-02-13T07:52:43;31.35;;;17.08;;
46230;SDS011;31949;51.404;-0.038;2023-02-13T07:55:10;32.90;;;18.27;;
46230;SDS011;31949;51.404;-0.038;2023-02-13T07:57:38;31.98;;;17.05;;
46230;SDS011;31949;51.404;-0.038;2023-02-13T08:00:05;34.60;;;19.48;;
46230;SDS011;31949;51.404;-0.038;2023-02-13T08:02:37;31.23;;;17.83;;
46230;SDS011;31949;51.404;-0.038;2023-02-13T08:05:08;37.50;;;18.97;;
46230;SDS011;31949;51.404;-0.038;2023-02-13T08:07:35;31.73;;;15.98;;
46230;SDS011;31949;51.404;-0.038;2023-02-13T08:10:03;31.58;;;16.08;;
46230;SDS011;31949;51.404;-0.038;2023-02-13T08:12:52;30.98;;;16.00;;
46230;SDS011;31949;51.404;-0.038;2023-02-13T08:15:20;31.02;;;17.33;;
46230;SDS011;31949;51.404;-0.038;2023-02-13T08:17:47;34.60;;;18.00;;
46230;SDS011;31949;51.404;-0.038;2023-02-13T08:20:14;35.13;;;19.25;;
46230;SDS011;31949;51.404;-0.038;2023-02-13T08:22:41;38.45;;;22.23;;
46230;SDS011;31949;51.404;-0.038;2023-02-13T08:25:08;43.05;;;21.58;;
46230;SDS011;31949;51.404;-0.038;2023-02-13T08:27:36;42.08;;;21.27;;
46230;SDS011;31949;51.404;-0.038;2023-02-13T08:30:04;39.17;;;21.27;;
46230;SDS011;31949;51.404;-0.038;2023-02-13T08:32:32;36.95;;;19.95;;
46230;SDS011;31949;51.404;-0.038;2023-02-13T08:35:18;37.58;;;20.75;;
46230;SDS011;31949;51.404;-0.038;2023-02-13T08:37:45;41.67;;;21.25;;
46230;SDS011;31949;51.404;-0.038;2023-02-13T08:40:13;38.78;;;21.27;;
46230;SDS011;31949;51.404;-0.038;2023-02-13T08:42:40;40.03;;;22.08;;
46230;SDS011;31949;51.404;-0.038;2023-02-13T08:45:07;43.13;;;23.80;;
46230;SDS011;31949;51.404;-0.038;2023-02-13T08:47:37;39.75;;;20.25;;
46230;SDS011;31949;51.404;-0.038;2023-02-13T08:50:05;40.75;;;22.73;;
46230;SDS011;31949;51.404;-0.038;2023-02-13T08:52:33;48.85;;;22.17;;
46230;SDS011;31949;51.404;-0.038;2023-02-13T08:55:01;46.40;;;24.10;;
46230;SDS011;31949;51.404;-0.038;2023-02-13T08:57:29;46.33;;;22.77;;
46230;SDS011;31949;51.404;-0.038;2023-02-13T08:59:56;42.63;;;21.88;;
46230;SDS011;31949;51.404;-0.038;2023-02-13T09:02:24;42.25;;;22.33;;
46230;SDS011;31949;51.404;-0.038;2023-02-13T09:04:51;43.03;;;22.70;;
46230;SDS011;31949;51.404;-0.038;2023-02-13T09:07:18;37.40;;;20.33;;
46230;SDS011;31949;51.404;-0.038;2023-02-13T09:09:46;35.75;;;19.45;;
46230;SDS011;31949;51.404;-0.038;2023-02-13T09:12:13;36.05;;;19.30;;
46230;SDS011;31949;51.404;-0.038;2023-02-13T09:14:40;37.10;;;22.60;;
46230;SDS011;31949;51.404;-0.038;2023-02-13T09:17:07;37.92;;;21.88;;
46230;SDS011;31949;51.404;-0.038;2023-02-13T09:19:35;32.00;;;18.50;;
46230;SDS011;31949;51.404;-0.038;2023-02-13T09:22:02;31.77;;;18.35;;
46230;SDS011;31949;51.404;-0.038;2023-02-13T09:24:29;31.17;;;18.08;;
46230;SDS011;31949;51.404;-0.038;2023-02-13T09:26:56;28.95;;;16.85;;
46230;SDS011;31949;51.404;-0.038;2023-02-13T09:29:24;29.23;;;15.68;;
46230;SDS011;31949;51.404;-0.038;2023-02-13T09:31:51;30.17;;;15.93;;
46230;SDS011;31949;51.404;-0.038;2023-02-13T09:34:18;25.73;;;15.60;;
46230;SDS011;31949;51.404;-0.038;2023-02-13T09:36:49;33.92;;;17.83;;
46230;SDS011;31949;51.404;-0.038;2023-02-13T09:41:46;26.60;;;15.73;;
46230;SDS011;31949;51.404;-0.038;2023-02-13T09:44:22;29.35;;;16.83;;
46230;SDS011;31949;51.404;-0.038;2023-02-13T09:47:01;32.42;;;17.38;;
46230;SDS011;31949;51.404;-0.038;2023-02-13T09:52:48;29.33;;;16.77;;
46230;SDS011;31949;51.404;-0.038;2023-02-13T09:55:20;27.17;;;16.45;;
46230;SDS011;31949;51.404;-0.038;2023-02-13T10:00:42;22.92;;;15.10;;
46230;SDS011;31949;51.404;-0.038;2023-02-13T10:03:20;25.58;;;16.38;;
46230;SDS011;31949;51.404;-0.038;2023-02-13T10:06:18;22.20;;;13.55;;
46230;SDS011;31949;51.404;-0.038;2023-02-13T10:09:00;27.50;;;15.88;;
46230;SDS011;31949;51.404;-0.038;2023-02-13T10:14:44;21.48;;;14.18;;
46230;SDS011;31949;51.404;-0.038;2023-02-13T10:17:32;20.90;;;13.02;;
46230;SDS011;31949;51.404;-0.038;2023-02-13T10:20:06;21.33;;;12.00;;
46230;SDS011;31949;51.404;-0.038;2023-02-13T10:22:45;22.88;;;13.80;;
46230;SDS011;31949;51.404;-0.038;2023-02-13T10:25:24;19.77;;;13.23;;
46230;SDS011;31949;51.404;-0.038;2023-02-13T10:27:59;23.90;;;13.93;;
46230;SDS011;31949;51.404;-0.038;2023-02-13T10:30:50;23.83;;;14.63;;
46230;SDS011;31949;51.404;-0.038;2023-02-13T10:33:55;20.60;;;14.02;;
46230;SDS011;31949;51.404;-0.038;2023-02-13T10:36:20;21.65;;;12.50;;
46230;SDS011;31949;51.404;-0.038;2023-02-13T10:38:54;21.52;;;14.45;;
46230;SDS011;31949;51.404;-0.038;2023-02-13T10:53:01;27.48;;;17.83;;
46230;SDS011;31949;51.404;-0.038;2023-02-13T10:58:31;22.45;;;13.05;;
46230;SDS011;31949;51.404;-0.038;2023-02-13T11:01:25;18.35;;;11.80;;
46230;SDS011;31949;51.404;-0.038;2023-02-13T11:04:01;28.75;;;19.33;;
46230;SDS011;31949;51.404;-0.038;2023-02-13T11:06:37;25.65;;;17.17;;
46230;SDS011;31949;51.404;-0.038;2023-02-13T11:09:09;22.45;;;13.93;;
46230;SDS011;31949;51.404;-0.038;2023-02-13T11:11:40;20.02;;;13.63;;
46230;SDS011;31949;51.404;-0.038;2023-02-13T11:14:18;19.20;;;13.48;;
46230;SDS011;31949;51.404;-0.038;2023-02-13T11:22:45;18.55;;;11.95;;
46230;SDS011;31949;51.404;-0.038;2023-02-13T11:25:06;21.45;;;14.50;;
46230;SDS011;31949;51.404;-0.038;2023-02-13T11:27:46;19.45;;;13.75;;
46230;SDS011;31949;51.404;-0.038;2023-02-13T11:33:03;19.25;;;13.23;;
46230;SDS011;31949;51.404;-0.038;2023-02-13T11:35:33;19.08;;;11.95;;
46230;SDS011;31949;51.404;-0.038;2023-02-13T11:40:36;18.95;;;13.63;;
46230;SDS011;31949;51.404;-0.038;2023-02-13T11:43:04;18.88;;;11.52;;
46230;SDS011;31949;51.404;-0.038;2023-02-13T11:45:33;22.98;;;13.85;;
46230;SDS011;31949;51.404;-0.038;2023-02-13T11:48:02;16.98;;;12.02;;
46230;SDS011;31949;51.404;-0.038;2023-02-13T11:50:49;18.73;;;12.07;;
46230;SDS011;31949;51.404;-0.038;2023-02-13T11:53:23;17.80;;;12.45;;
46230;SDS011;31949;51.404;-0.038;2023-02-13T11:56:26;15.77;;;11.60;;
46230;SDS011;31949;51.404;-0.038;2023-02-13T11:58:46;18.50;;;12.23;;
46230;SDS011;31949;51.404;-0.038;2023-02-13T12:01:28;16.58;;;11.02;;
46230;SDS011;31949;51.404;-0.038;2023-02-13T12:04:05;17.83;;;11.95;;
46230;SDS011;31949;51.404;-0.038;2023-02-13T12:06:58;19.92;;;13.88;;
46230;SDS011;31949;51.404;-0.038;2023-02-13T12:09:28;20.27;;;13.50;;
46230;SDS011;31949;51.404;-0.038;2023-02-13T12:11:57;18.80;;;13.30;;
46230;SDS011;31949;51.404;-0.038;2023-02-13T12:14:29;18.73;;;12.65;;
46230;SDS011;31949;51.404;-0.038;2023-02-13T12:17:02;16.60;;;10.55;;
46230;SDS011;31949;51.404;-0.038;2023-02-13T12:22:21;16.95;;;11.80;;
46230;SDS011;31949;51.404;-0.038;2023-02-13T12:28:04;18.00;;;12.48;;
46230;SDS011;31949;51.404;-0.038;2023-02-13T12:30:48;17.23;;;12.73;;
46230;SDS011;31949;51.404;-0.038;2023-02-13T12:36:14;19.98;;;13.52;;
46230;SDS011;31949;51.404;-0.038;2023-02-13T12:38:53;20.30;;;13.80;;
46230;SDS011;31949;51.404;-0.038;2023-02-13T12:47:24;18.13;;;12.75;;
46230;SDS011;31949;51.404;-0.038;2023-02-13T12:58:53;18.27;;;12.98;;
46230;SDS011;31949;51.404;-0.038;2023-02-13T13:01:34;19.60;;;13.38;;
46230;SDS011;31949;51.404;-0.038;2023-02-13T13:04:25;26.35;;;16.75;;
46230;SDS011;31949;51.404;-0.038;2023-02-13T13:15:39;23.48;;;14.75;;
46230;SDS011;31949;51.404;-0.038;2023-02-13T13:23:53;20.80;;;13.40;;
46230;SDS011;31949;51.404;-0.038;2023-02-13T13:26:36;22.33;;;13.52;;
46230;SDS011;31949;51.404;-0.038;2023-02-13T13:29:21;20.63;;;13.93;;
46230;SDS011;31949;51.404;-0.038;2023-02-13T13:31:57;20.10;;;15.13;;
46230;SDS011;31949;51.404;-0.038;2023-02-13T13:34:27;20.10;;;14.98;;
46230;SDS011;31949;51.404;-0.038;2023-02-13T13:37:02;18.65;;;14.15;;
46230;SDS011;31949;51.404;-0.038;2023-02-13T13:39:52;20.30;;;14.43;;
46230;SDS011;31949;51.404;-0.038;2023-02-13T13:47:39;18.77;;;13.75;;
46230;SDS011;31949;51.404;-0.038;2023-02-13T13:50:16;19.98;;;12.65;;
46230;SDS011;31949;51.404;-0.038;2023-02-13T13:53:14;18.88;;;14.20;;
46230;SDS011;31949;51.404;-0.038;2023-02-13T13:58:21;21.13;;;14.52;;
46230;SDS011;31949;51.404;-0.038;2023-02-13T14:03:53;18.48;;;13.48;;
46230;SDS011;31949;51.404;-0.038;2023-02-13T14:06:23;19.88;;;13.13;;
46230;SDS011;31949;51.404;-0.038;2023-02-13T14:08:54;18.52;;;12.95;;
46230;SDS011;31949;51.404;-0.038;2023-02-13T14:11:40;19.15;;;11.98;;
46230;SDS011;31949;51.404;-0.038;2023-02-13T14:16:56;17.90;;;11.50;;
46230;SDS011;31949;51.404;-0.038;2023-02-13T14:19:28;21.47;;;12.40;;
46230;SDS011;31949;51.404;-0.038;2023-02-13T14:25:03;15.23;;;11.52;;
46230;SDS011;31949;51.404;-0.038;2023-02-13T14:30:06;20.70;;;14.40;;
46230;SDS011;31949;51.404;-0.038;2023-02-13T14:32:51;14.40;;;9.88;;
46230;SDS011;31949;51.404;-0.038;2023-02-13T14:35:22;20.05;;;12.52;;
46230;SDS011;31949;51.404;-0.038;2023-02-13T14:37:52;14.30;;;10.05;;
46230;SDS011;31949;51.404;-0.038;2023-02-13T14:45:52;14.93;;;10.15;;
46230;SDS011;31949;51.404;-0.038;2023-02-13T14:48:38;15.93;;;11.45;;
46230;SDS011;31949;51.404;-0.038;2023-02-13T14:51:13;19.50;;;12.85;;
46230;SDS011;31949;51.404;-0.038;2023-02-13T14:54:02;13.23;;;10.13;;
46230;SDS011;31949;51.404;-0.038;2023-02-13T14:56:33;16.98;;;11.82;;
46230;SDS011;31949;51.404;-0.038;2023-02-13T14:59:14;14.32;;;9.90;;
46230;SDS011;31949;51.404;-0.038;2023-02-13T15:01:47;17.17;;;12.38;;
46230;SDS011;31949;51.404;-0.038;2023-02-13T15:05:29;19.05;;;11.35;;
46230;SDS011;31949;51.404;-0.038;2023-02-13T15:07:29;19.75;;;12.68;;
46230;SDS011;31949;51.404;-0.038;2023-02-13T15:12:32;16.08;;;11.25;;
46230;SDS011;31949;51.404;-0.038;2023-02-13T15:15:02;17.25;;;11.48;;
46230;SDS011;31949;51.404;-0.038;2023-02-13T15:17:48;17.42;;;10.55;;
46230;SDS011;31949;51.404;-0.038;2023-02-13T15:20:19;15.13;;;11.13;;
46230;SDS011;31949;51.404;-0.038;2023-02-13T15:22:58;16.60;;;10.90;;
46230;SDS011;31949;51.404;-0.038;2023-02-13T15:28:01;17.92;;;13.13;;
46230;SDS011;31949;51.404;-0.038;2023-02-13T15:30:34;19.10;;;12.55;;
46230;SDS011;31949;51.404;-0.038;2023-02-13T15:33:12;16.73;;;11.00;;
46230;SDS011;31949;51.404;-0.038;2023-02-13T15:35:43;13.63;;;10.35;;
46230;SDS011;31949;51.404;-0.038;2023-02-13T15:38:28;17.17;;;10.90;;
46230;SDS011;31949;51.404;-0.038;2023-02-13T15:40:58;16.10;;;10.82;;
46230;SDS011;31949;51.404;-0.038;2023-02-13T15:46:07;14.23;;;10.35;;
46230;SDS011;31949;51.404;-0.038;2023-02-13T15:49:05;14.60;;;10.55;;
46230;SDS011;31949;51.404;-0.038;2023-02-13T15:51:33;16.52;;;9.85;;
46230;SDS011;31949;51.404;-0.038;2023-02-13T15:54:04;13.35;;;9.73;;
46230;SDS011;31949;51.404;-0.038;2023-02-13T15:56:47;14.93;;;10.82;;
46230;SDS011;31949;51.404;-0.038;2023-02-13T15:59:15;16.98;;;10.57;;
46230;SDS011;31949;51.404;-0.038;2023-02-13T16:01:44;16.40;;;11.35;;
46230;SDS011;31949;51.404;-0.038;2023-02-13T16:04:13;18.73;;;12.43;;
46230;SDS011;31949;51.404;-0.038;2023-02-13T16:06:44;18.17;;;11.90;;
46230;SDS011;31949;51.404;-0.038;2023-02-13T16:12:00;17.15;;;11.63;;
46230;SDS011;31949;51.404;-0.038;2023-02-13T16:14:50;14.77;;;10.65;;
46230;SDS011;31949;51.404;-0.038;2023-02-13T16:28:02;18.05;;;12.35;;
46230;SDS011;31949;51.404;-0.038;2023-02-13T16:33:09;17.15;;;11.63;;
46230;SDS011;31949;51.404;-0.038;2023-02-13T16:38:37;19.55;;;13.23;;
46230;SDS011;31949;51.404;-0.038;2023-02-13T16:44:01;21.40;;;13.50;;
46230;SDS011;31949;51.404;-0.038;2023-02-13T16:46:30;17.83;;;12.43;;
46230;SDS011;31949;51.404;-0.038;2023-02-13T16:54:17;20.30;;;12.63;;
46230;SDS011;31949;51.404;-0.038;2023-02-13T17:02:18;21.83;;;13.20;;
46230;SDS011;31949;51.404;-0.038;2023-02-13T17:04:50;20.55;;;12.95;;
46230;SDS011;31949;51.404;-0.038;2023-02-13T17:07:37;23.30;;;14.48;;
46230;SDS011;31949;51.404;-0.038;2023-02-13T17:12:46;16.48;;;12.27;;
46230;SDS011;31949;51.404;-0.038;2023-02-13T17:15:16;20.55;;;14.27;;
46230;SDS011;31949;51.404;-0.038;2023-02-13T17:17:47;24.23;;;15.02;;
46230;SDS011;31949;51.404;-0.038;2023-02-13T17:20:18;23.02;;;14.82;;
46230;SDS011;31949;51.404;-0.038;2023-02-13T17:22:54;22.23;;;13.90;;
46230;SDS011;31949;51.404;-0.038;2023-02-13T17:27:55;21.60;;;13.32;;
46230;SDS011;31949;51.404;-0.038;2023-02-13T17:30:25;21.20;;;13.25;;
46230;SDS011;31949;51.404;-0.038;2023-02-13T17:33:01;22.05;;;13.68;;
46230;SDS011;31949;51.404;-0.038;2023-02-13T17:35:32;23.23;;;14.00;;
46230;SDS011;31949;51.404;-0.038;2023-02-13T17:38:01;23.70;;;13.48;;
46230;SDS011;31949;51.404;-0.038;2023-02-13T17:40:28;28.98;;;16.70;;
46230;SDS011;31949;51.404;-0.038;2023-02-13T17:42:57;25.83;;;14.00;;
46230;SDS011;31949;51.404;-0.038;2023-02-13T17:45:26;19.67;;;14.02;;
46230;SDS011;31949;51.404;-0.038;2023-02-13T17:47:55;23.52;;;14.10;;